sensor_id;sensor_type;location;lat;lon;timestamp;temperature;humidity
439;DHT22;206;48.782;9.252;2023-11-21T00:00:13;11.10;65.70
439;DHT22;206;48.782;9.252;2023-11-21T00:02:39;11.10;65.50
439;DHT22;206;48.782;9.252;2023-11-21T00:05:10;11.10;66.10
439;DHT22;206;48.782;9.252;2023-11-21T00:07:38;11.10;67.10
439;DHT22;206;48.782;9.252;2023-11-21T00:10:04;11.10;66.90
439;DHT22;206;48.782;9.252;2023-11-21T00:12:36;11.10;67.10
439;DHT22;206;48.782;9.252;2023-11-21T00:15:03;11.10;66.40
439;DHT22;206;48.782;9.252;2023-11-21T00:17:30;11.10;67.00
439;DHT22;206;48.782;9.252;2023-11-21T00:19:56;11.00;66.90
439;DHT22;206;48.782;9.252;2023-11-21T00:22:21;11.00;67.80
439;DHT22;206;48.782;9.252;2023-11-21T00:24:47;11.00;67.50
439;DHT22;206;48.782;9.252;2023-11-21T00:27:13;11.00;67.50
439;DHT22;206;48.782;9.252;2023-11-21T00:29:39;11.00;68.10
439;DHT22;206;48.782;9.252;2023-11-21T00:32:06;11.00;68.40
439;DHT22;206;48.782;9.252;2023-11-21T00:34:32;10.90;68.50
439;DHT22;206;48.782;9.252;2023-11-21T00:36:58;11.00;68.80
439;DHT22;206;48.782;9.252;2023-11-21T00:39:23;11.00;68.80
439;DHT22;206;48.782;9.252;2023-11-21T00:41:49;11.00;68.80
439;DHT22;206;48.782;9.252;2023-11-21T00:44:15;11.00;69.50
439;DHT22;206;48.782;9.252;2023-11-21T00:46:41;11.00;69.60
439;DHT22;206;48.782;9.252;2023-11-21T00:49:07;11.00;68.80
439;DHT22;206;48.782;9.252;2023-11-21T00:51:33;11.00;68.60
439;DHT22;206;48.782;9.252;2023-11-21T00:53:58;11.00;68.50
439;DHT22;206;48.782;9.252;2023-11-21T00:56:24;11.00;68.60
439;DHT22;206;48.782;9.252;2023-11-21T00:58:50;11.00;68.50
439;DHT22;206;48.782;9.252;2023-11-21T01:01:18;11.00;68.20
439;DHT22;206;48.782;9.252;2023-11-21T01:03:46;11.10;67.90
439;DHT22;206;48.782;9.252;2023-11-21T01:06:11;11.10;67.10
439;DHT22;206;48.782;9.252;2023-11-21T01:08:37;11.10;66.30
439;DHT22;206;48.782;9.252;2023-11-21T01:11:03;11.10;65.80
439;DHT22;206;48.782;9.252;2023-11-21T01:13:30;11.10;66.10
439;DHT22;206;48.782;9.252;2023-11-21T01:15:55;11.10;66.10
439;DHT22;206;48.782;9.252;2023-11-21T01:18:21;11.10;64.80
439;DHT22;206;48.782;9.252;2023-11-21T01:20:47;11.10;64.20
439;DHT22;206;48.782;9.252;2023-11-21T01:23:15;11.10;64.60
439;DHT22;206;48.782;9.252;2023-11-21T01:25:41;11.20;64.80
439;DHT22;206;48.782;9.252;2023-11-21T01:28:06;11.10;64.20
439;DHT22;206;48.782;9.252;2023-11-21T01:30:32;11.20;64.00
439;DHT22;206;48.782;9.252;2023-11-21T01:32:58;11.20;64.00
439;DHT22;206;48.782;9.252;2023-11-21T01:35:24;11.20;63.40
439;DHT22;206;48.782;9.252;2023-11-21T01:37:50;11.20;63.30
439;DHT22;206;48.782;9.252;2023-11-21T01:40:15;11.20;62.50
439;DHT22;206;48.782;9.252;2023-11-21T01:42:41;11.20;61.80
439;DHT22;206;48.782;9.252;2023-11-21T01:45:09;11.20;61.00
439;DHT22;206;48.782;9.252;2023-11-21T01:47:35;11.20;61.50
439;DHT22;206;48.782;9.252;2023-11-21T01:50:02;11.20;61.00
439;DHT22;206;48.782;9.252;2023-11-21T01:52:30;11.20;61.20
439;DHT22;206;48.782;9.252;2023-11-21T01:54:56;11.20;61.90
439;DHT22;206;48.782;9.252;2023-11-21T01:57:23;11.20;61.70
439;DHT22;206;48.782;9.252;2023-11-21T01:59:49;11.20;62.10
439;DHT22;206;48.782;9.252;2023-11-21T02:02:15;11.20;61.40
439;DHT22;206;48.782;9.252;2023-11-21T02:04:41;11.20;62.10
439;DHT22;206;48.782;9.252;2023-11-21T02:07:07;11.10;62.10
439;DHT22;206;48.782;9.252;2023-11-21T02:09:32;11.20;62.10
439;DHT22;206;48.782;9.252;2023-11-21T02:11:59;11.20;62.30
439;DHT22;206;48.782;9.252;2023-11-21T02:14:28;11.20;62.20
439;DHT22;206;48.782;9.252;2023-11-21T02:16:55;11.20;62.40
439;DHT22;206;48.782;9.252;2023-11-21T02:19:23;11.20;61.80
439;DHT22;206;48.782;9.252;2023-11-21T02:21:52;11.30;60.60
439;DHT22;206;48.782;9.252;2023-11-21T02:24:26;11.30;58.80
439;DHT22;206;48.782;9.252;2023-11-21T02:26:52;11.20;59.10
439;DHT22;206;48.782;9.252;2023-11-21T02:29:19;11.20;59.80
439;DHT22;206;48.782;9.252;2023-11-21T02:31:48;11.20;60.90
439;DHT22;206;48.782;9.252;2023-11-21T02:34:17;11.20;60.30
439;DHT22;206;48.782;9.252;2023-11-21T02:36:43;11.20;60.80
439;DHT22;206;48.782;9.252;2023-11-21T02:39:12;11.20;60.50
439;DHT22;206;48.782;9.252;2023-11-21T02:41:38;11.20;59.80
439;DHT22;206;48.782;9.252;2023-11-21T02:44:08;11.30;59.30
439;DHT22;206;48.782;9.252;2023-11-21T02:46:34;11.30;59.20
439;DHT22;206;48.782;9.252;2023-11-21T02:49:03;11.30;58.60
439;DHT22;206;48.782;9.252;2023-11-21T02:51:30;11.30;58.60
439;DHT22;206;48.782;9.252;2023-11-21T02:53:56;11.40;58.00
439;DHT22;206;48.782;9.252;2023-11-21T02:56:26;11.30;58.40
439;DHT22;206;48.782;9.252;2023-11-21T02:58:52;11.40;57.80
439;DHT22;206;48.782;9.252;2023-11-21T03:01:18;11.30;57.50
439;DHT22;206;48.782;9.252;2023-11-21T03:03:43;11.30;57.60
439;DHT22;206;48.782;9.252;2023-11-21T03:06:09;11.30;58.40
439;DHT22;206;48.782;9.252;2023-11-21T03:08:35;11.30;58.40
439;DHT22;206;48.782;9.252;2023-11-21T03:11:01;11.30;57.80
439;DHT22;206;48.782;9.252;2023-11-21T03:13:28;11.30;57.00
439;DHT22;206;48.782;9.252;2023-11-21T03:15:54;11.30;56.90
439;DHT22;206;48.782;9.252;2023-11-21T03:18:19;11.30;56.90
439;DHT22;206;48.782;9.252;2023-11-21T03:20:47;11.20;56.90
439;DHT22;206;48.782;9.252;2023-11-21T03:23:13;11.20;57.30
439;DHT22;206;48.782;9.252;2023-11-21T03:25:38;11.20;57.40
439;DHT22;206;48.782;9.252;2023-11-21T03:28:04;11.20;57.70
439;DHT22;206;48.782;9.252;2023-11-21T03:30:30;11.20;57.10
439;DHT22;206;48.782;9.252;2023-11-21T03:32:55;11.20;57.30
439;DHT22;206;48.782;9.252;2023-11-21T03:35:21;11.20;59.20
439;DHT22;206;48.782;9.252;2023-11-21T03:37:47;11.20;58.10
439;DHT22;206;48.782;9.252;2023-11-21T03:40:13;11.20;57.60
439;DHT22;206;48.782;9.252;2023-11-21T03:42:39;11.20;57.70
439;DHT22;206;48.782;9.252;2023-11-21T03:45:05;11.20;57.50
439;DHT22;206;48.782;9.252;2023-11-21T03:47:31;11.20;57.20
439;DHT22;206;48.782;9.252;2023-11-21T03:49:57;11.20;56.60
439;DHT22;206;48.782;9.252;2023-11-21T03:52:22;11.20;57.30
439;DHT22;206;48.782;9.252;2023-11-21T03:54:48;11.20;57.80
439;DHT22;206;48.782;9.252;2023-11-21T03:57:14;11.20;58.00
439;DHT22;206;48.782;9.252;2023-11-21T03:59:43;11.20;57.80
439;DHT22;206;48.782;9.252;2023-11-21T04:02:09;11.20;57.30
439;DHT22;206;48.782;9.252;2023-11-21T04:04:35;11.10;57.30
439;DHT22;206;48.782;9.252;2023-11-21T04:07:01;11.10;57.50
439;DHT22;206;48.782;9.252;2023-11-21T04:09:27;11.10;58.30
439;DHT22;206;48.782;9.252;2023-11-21T04:11:53;11.00;58.70
439;DHT22;206;48.782;9.252;2023-11-21T04:14:20;11.00;58.90
439;DHT22;206;48.782;9.252;2023-11-21T04:16:46;11.00;58.90
439;DHT22;206;48.782;9.252;2023-11-21T04:19:11;11.00;59.90
439;DHT22;206;48.782;9.252;2023-11-21T04:21:43;11.10;60.30
439;DHT22;206;48.782;9.252;2023-11-21T04:24:09;11.10;60.20
439;DHT22;206;48.782;9.252;2023-11-21T04:26:35;11.00;59.20
439;DHT22;206;48.782;9.252;2023-11-21T04:29:00;11.00;59.60
439;DHT22;206;48.782;9.252;2023-11-21T04:31:26;11.00;60.90
439;DHT22;206;48.782;9.252;2023-11-21T04:33:51;11.00;61.10
439;DHT22;206;48.782;9.252;2023-11-21T04:36:17;11.00;62.10
439;DHT22;206;48.782;9.252;2023-11-21T04:38:43;11.00;62.90
439;DHT22;206;48.782;9.252;2023-11-21T04:41:09;11.00;63.80
439;DHT22;206;48.782;9.252;2023-11-21T04:43:34;11.00;63.80
439;DHT22;206;48.782;9.252;2023-11-21T04:46:00;11.00;64.70
439;DHT22;206;48.782;9.252;2023-11-21T04:48:27;10.90;64.80
439;DHT22;206;48.782;9.252;2023-11-21T04:50:53;10.90;64.70
439;DHT22;206;48.782;9.252;2023-11-21T04:53:18;10.80;65.60
439;DHT22;206;48.782;9.252;2023-11-21T04:55:44;10.80;66.10
439;DHT22;206;48.782;9.252;2023-11-21T04:58:10;10.70;67.00
439;DHT22;206;48.782;9.252;2023-11-21T05:00:36;10.60;67.30
439;DHT22;206;48.782;9.252;2023-11-21T05:03:02;10.60;67.60
439;DHT22;206;48.782;9.252;2023-11-21T05:05:29;10.60;67.90
439;DHT22;206;48.782;9.252;2023-11-21T05:07:55;10.60;68.10
439;DHT22;206;48.782;9.252;2023-11-21T05:10:21;10.60;67.00
439;DHT22;206;48.782;9.252;2023-11-21T05:12:47;10.60;67.00
439;DHT22;206;48.782;9.252;2023-11-21T05:15:15;10.60;67.10
439;DHT22;206;48.782;9.252;2023-11-21T05:17:43;10.50;66.10
439;DHT22;206;48.782;9.252;2023-11-21T05:20:14;10.60;67.20
439;DHT22;206;48.782;9.252;2023-11-21T05:22:43;10.60;67.20
439;DHT22;206;48.782;9.252;2023-11-21T05:25:09;10.50;67.30
439;DHT22;206;48.782;9.252;2023-11-21T05:27:35;10.60;65.40
439;DHT22;206;48.782;9.252;2023-11-21T05:30:02;10.60;66.20
439;DHT22;206;48.782;9.252;2023-11-21T05:32:30;10.70;67.40
439;DHT22;206;48.782;9.252;2023-11-21T05:34:56;10.70;65.70
439;DHT22;206;48.782;9.252;2023-11-21T05:37:22;10.70;65.20
439;DHT22;206;48.782;9.252;2023-11-21T05:39:48;10.70;64.80
439;DHT22;206;48.782;9.252;2023-11-21T05:42:14;10.70;63.50
439;DHT22;206;48.782;9.252;2023-11-21T05:44:42;10.70;63.50
439;DHT22;206;48.782;9.252;2023-11-21T05:47:11;10.70;63.50
439;DHT22;206;48.782;9.252;2023-11-21T05:49:37;10.80;63.60
439;DHT22;206;48.782;9.252;2023-11-21T05:52:02;10.80;63.60
439;DHT22;206;48.782;9.252;2023-11-21T05:54:28;10.80;63.60
439;DHT22;206;48.782;9.252;2023-11-21T05:56:54;10.80;63.10
439;DHT22;206;48.782;9.252;2023-11-21T05:59:19;10.80;62.40
439;DHT22;206;48.782;9.252;2023-11-21T06:01:45;10.80;62.60
439;DHT22;206;48.782;9.252;2023-11-21T06:04:11;10.80;63.50
439;DHT22;206;48.782;9.252;2023-11-21T06:06:38;10.70;63.20
439;DHT22;206;48.782;9.252;2023-11-21T06:09:04;10.70;62.90
439;DHT22;206;48.782;9.252;2023-11-21T06:11:31;10.70;62.70
439;DHT22;206;48.782;9.252;2023-11-21T06:13:57;10.70;61.40
439;DHT22;206;48.782;9.252;2023-11-21T06:16:23;10.70;61.40
439;DHT22;206;48.782;9.252;2023-11-21T06:18:49;10.70;62.00
439;DHT22;206;48.782;9.252;2023-11-21T06:21:15;10.80;62.70
439;DHT22;206;48.782;9.252;2023-11-21T06:23:42;10.70;62.40
439;DHT22;206;48.782;9.252;2023-11-21T06:26:07;10.70;62.40
439;DHT22;206;48.782;9.252;2023-11-21T06:28:34;10.80;62.20
439;DHT22;206;48.782;9.252;2023-11-21T06:31:01;10.80;62.20
439;DHT22;206;48.782;9.252;2023-11-21T06:33:31;10.80;61.60
439;DHT22;206;48.782;9.252;2023-11-21T06:35:56;10.80;61.50
439;DHT22;206;48.782;9.252;2023-11-21T06:38:22;10.80;61.60
439;DHT22;206;48.782;9.252;2023-11-21T06:40:48;10.80;61.80
439;DHT22;206;48.782;9.252;2023-11-21T06:43:13;10.80;61.00
439;DHT22;206;48.782;9.252;2023-11-21T06:45:39;10.80;60.70
439;DHT22;206;48.782;9.252;2023-11-21T06:48:05;10.80;61.10
439;DHT22;206;48.782;9.252;2023-11-21T06:50:31;10.90;61.30
439;DHT22;206;48.782;9.252;2023-11-21T06:52:57;10.90;60.20
439;DHT22;206;48.782;9.252;2023-11-21T06:55:23;10.90;60.60
439;DHT22;206;48.782;9.252;2023-11-21T06:57:49;11.00;61.40
439;DHT22;206;48.782;9.252;2023-11-21T07:00:16;11.00;60.40
439;DHT22;206;48.782;9.252;2023-11-21T07:02:43;11.00;60.40
439;DHT22;206;48.782;9.252;2023-11-21T07:05:08;11.00;60.50
439;DHT22;206;48.782;9.252;2023-11-21T07:07:34;11.00;59.90
439;DHT22;206;48.782;9.252;2023-11-21T07:10:01;11.00;59.50
439;DHT22;206;48.782;9.252;2023-11-21T07:12:29;11.00;59.40
439;DHT22;206;48.782;9.252;2023-11-21T07:14:55;11.10;59.10
439;DHT22;206;48.782;9.252;2023-11-21T07:17:21;11.10;59.30
439;DHT22;206;48.782;9.252;2023-11-21T07:19:48;11.10;59.20
439;DHT22;206;48.782;9.252;2023-11-21T07:22:15;11.20;59.40
439;DHT22;206;48.782;9.252;2023-11-21T07:24:48;11.20;59.30
439;DHT22;206;48.782;9.252;2023-11-21T07:27:15;11.20;59.80
439;DHT22;206;48.782;9.252;2023-11-21T07:29:40;11.20;59.50
439;DHT22;206;48.782;9.252;2023-11-21T07:32:06;11.20;59.40
439;DHT22;206;48.782;9.252;2023-11-21T07:34:32;11.30;59.50
439;DHT22;206;48.782;9.252;2023-11-21T07:36:57;11.30;59.40
439;DHT22;206;48.782;9.252;2023-11-21T07:39:23;11.30;59.70
439;DHT22;206;48.782;9.252;2023-11-21T07:41:48;11.40;59.30
439;DHT22;206;48.782;9.252;2023-11-21T07:44:16;11.40;59.30
439;DHT22;206;48.782;9.252;2023-11-21T07:46:42;11.40;58.30
439;DHT22;206;48.782;9.252;2023-11-21T07:49:08;11.50;59.00
439;DHT22;206;48.782;9.252;2023-11-21T07:51:34;11.50;59.40
439;DHT22;206;48.782;9.252;2023-11-21T07:54:00;11.60;58.30
439;DHT22;206;48.782;9.252;2023-11-21T07:56:26;11.60;57.20
439;DHT22;206;48.782;9.252;2023-11-21T07:58:51;11.60;57.20
439;DHT22;206;48.782;9.252;2023-11-21T08:01:17;11.70;56.70
439;DHT22;206;48.782;9.252;2023-11-21T08:03:43;11.70;56.30
439;DHT22;206;48.782;9.252;2023-11-21T08:06:14;11.70;55.90
439;DHT22;206;48.782;9.252;2023-11-21T08:08:40;11.70;56.40
439;DHT22;206;48.782;9.252;2023-11-21T08:11:05;11.70;56.20
439;DHT22;206;48.782;9.252;2023-11-21T08:13:33;11.70;56.70
439;DHT22;206;48.782;9.252;2023-11-21T08:15:59;11.70;54.90
439;DHT22;206;48.782;9.252;2023-11-21T08:18:28;11.70;54.90
439;DHT22;206;48.782;9.252;2023-11-21T08:20:54;11.70;55.60
439;DHT22;206;48.782;9.252;2023-11-21T08:23:20;11.80;56.10
439;DHT22;206;48.782;9.252;2023-11-21T08:25:50;11.80;55.40
439;DHT22;206;48.782;9.252;2023-11-21T08:28:16;11.70;55.40
439;DHT22;206;48.782;9.252;2023-11-21T08:30:42;11.70;57.00
439;DHT22;206;48.782;9.252;2023-11-21T08:33:08;11.80;55.90
439;DHT22;206;48.782;9.252;2023-11-21T08:35:39;11.80;55.00
439;DHT22;206;48.782;9.252;2023-11-21T08:38:05;11.70;54.90
439;DHT22;206;48.782;9.252;2023-11-21T08:40:31;11.70;54.90
439;DHT22;206;48.782;9.252;2023-11-21T08:42:57;11.70;56.30
439;DHT22;206;48.782;9.252;2023-11-21T08:45:24;11.60;56.30
439;DHT22;206;48.782;9.252;2023-11-21T08:47:51;11.70;56.60
439;DHT22;206;48.782;9.252;2023-11-21T08:50:17;11.60;56.30
439;DHT22;206;48.782;9.252;2023-11-21T08:52:44;11.70;56.90
439;DHT22;206;48.782;9.252;2023-11-21T08:55:09;11.80;56.90
439;DHT22;206;48.782;9.252;2023-11-21T08:57:38;11.90;55.00
439;DHT22;206;48.782;9.252;2023-11-21T09:00:04;11.90;55.80
439;DHT22;206;48.782;9.252;2023-11-21T09:02:33;12.00;56.20
439;DHT22;206;48.782;9.252;2023-11-21T09:05:00;12.10;55.20
439;DHT22;206;48.782;9.252;2023-11-21T09:07:28;12.20;54.70
439;DHT22;206;48.782;9.252;2023-11-21T09:09:54;12.30;54.50
439;DHT22;206;48.782;9.252;2023-11-21T09:12:20;12.30;54.70
439;DHT22;206;48.782;9.252;2023-11-21T09:14:46;12.40;52.20
439;DHT22;206;48.782;9.252;2023-11-21T09:17:11;12.40;53.80
439;DHT22;206;48.782;9.252;2023-11-21T09:19:40;12.50;53.00
439;DHT22;206;48.782;9.252;2023-11-21T09:22:06;12.60;50.70
439;DHT22;206;48.782;9.252;2023-11-21T09:24:33;12.60;49.50
439;DHT22;206;48.782;9.252;2023-11-21T09:26:59;12.60;48.60
439;DHT22;206;48.782;9.252;2023-11-21T09:29:28;12.60;50.10
439;DHT22;206;48.782;9.252;2023-11-21T09:31:54;12.70;50.30
439;DHT22;206;48.782;9.252;2023-11-21T09:34:21;12.80;51.00
439;DHT22;206;48.782;9.252;2023-11-21T09:36:47;12.80;49.00
439;DHT22;206;48.782;9.252;2023-11-21T09:39:13;12.90;48.20
439;DHT22;206;48.782;9.252;2023-11-21T09:41:50;13.10;48.60
439;DHT22;206;48.782;9.252;2023-11-21T09:44:25;13.20;47.60
439;DHT22;206;48.782;9.252;2023-11-21T09:46:58;13.40;46.50
439;DHT22;206;48.782;9.252;2023-11-21T09:49:26;13.40;43.80
439;DHT22;206;48.782;9.252;2023-11-21T09:51:55;13.40;43.10
439;DHT22;206;48.782;9.252;2023-11-21T09:54:22;13.30;43.00
439;DHT22;206;48.782;9.252;2023-11-21T09:56:48;13.30;42.80
439;DHT22;206;48.782;9.252;2023-11-21T09:59:15;13.30;43.70
439;DHT22;206;48.782;9.252;2023-11-21T10:01:42;13.40;43.50
439;DHT22;206;48.782;9.252;2023-11-21T10:04:08;13.50;42.80
439;DHT22;206;48.782;9.252;2023-11-21T10:06:40;13.50;43.30
439;DHT22;206;48.782;9.252;2023-11-21T10:09:09;13.50;42.60
439;DHT22;206;48.782;9.252;2023-11-21T10:11:41;13.40;43.50
439;DHT22;206;48.782;9.252;2023-11-21T10:14:10;13.30;42.70
439;DHT22;206;48.782;9.252;2023-11-21T10:16:36;13.20;43.30
439;DHT22;206;48.782;9.252;2023-11-21T10:19:04;13.20;44.10
439;DHT22;206;48.782;9.252;2023-11-21T10:21:32;13.20;43.90
439;DHT22;206;48.782;9.252;2023-11-21T10:23:59;13.10;45.90
439;DHT22;206;48.782;9.252;2023-11-21T10:26:29;13.10;46.10
439;DHT22;206;48.782;9.252;2023-11-21T10:29:01;13.00;47.40
439;DHT22;206;48.782;9.252;2023-11-21T10:31:32;12.80;50.80
439;DHT22;206;48.782;9.252;2023-11-21T10:34:17;12.70;52.80
439;DHT22;206;48.782;9.252;2023-11-21T10:36:44;12.60;51.70
439;DHT22;206;48.782;9.252;2023-11-21T10:39:13;12.60;51.60
439;DHT22;206;48.782;9.252;2023-11-21T10:41:39;12.60;52.10
439;DHT22;206;48.782;9.252;2023-11-21T10:44:05;12.60;55.60
439;DHT22;206;48.782;9.252;2023-11-21T10:46:33;12.50;58.90
439;DHT22;206;48.782;9.252;2023-11-21T10:48:59;12.50;60.70
439;DHT22;206;48.782;9.252;2023-11-21T10:51:25;12.50;62.90
439;DHT22;206;48.782;9.252;2023-11-21T10:53:54;12.50;61.70
439;DHT22;206;48.782;9.252;2023-11-21T10:56:23;12.40;60.80
439;DHT22;206;48.782;9.252;2023-11-21T10:58:50;12.30;62.50
439;DHT22;206;48.782;9.252;2023-11-21T11:01:19;12.30;63.50
439;DHT22;206;48.782;9.252;2023-11-21T11:03:47;12.20;61.60
439;DHT22;206;48.782;9.252;2023-11-21T11:06:14;12.20;63.00
439;DHT22;206;48.782;9.252;2023-11-21T11:08:40;12.20;64.10
439;DHT22;206;48.782;9.252;2023-11-21T11:11:07;12.20;63.30
439;DHT22;206;48.782;9.252;2023-11-21T11:13:33;12.20;60.60
439;DHT22;206;48.782;9.252;2023-11-21T11:16:00;12.20;61.60
439;DHT22;206;48.782;9.252;2023-11-21T11:18:32;12.40;61.70
439;DHT22;206;48.782;9.252;2023-11-21T11:23:38;12.50;59.10
439;DHT22;206;48.782;9.252;2023-11-21T11:30:26;12.70;57.50
439;DHT22;206;48.782;9.252;2023-11-21T11:32:47;12.60;53.80
439;DHT22;206;48.782;9.252;2023-11-21T11:38:08;12.70;53.60
439;DHT22;206;48.782;9.252;2023-11-21T11:40:47;12.80;55.00
439;DHT22;206;48.782;9.252;2023-11-21T11:43:13;12.90;54.60
439;DHT22;206;48.782;9.252;2023-11-21T11:45:40;13.10;55.40
439;DHT22;206;48.782;9.252;2023-11-21T11:48:11;13.20;53.30
439;DHT22;206;48.782;9.252;2023-11-21T11:51:00;13.40;50.80
439;DHT22;206;48.782;9.252;2023-11-21T11:53:33;13.50;49.30
439;DHT22;206;48.782;9.252;2023-11-21T11:58:44;13.60;47.80
439;DHT22;206;48.782;9.252;2023-11-21T12:01:11;13.60;46.90
439;DHT22;206;48.782;9.252;2023-11-21T12:03:37;13.50;46.80
439;DHT22;206;48.782;9.252;2023-11-21T12:06:05;13.50;46.90
439;DHT22;206;48.782;9.252;2023-11-21T12:08:32;13.50;48.50
439;DHT22;206;48.782;9.252;2023-11-21T12:10:58;13.50;49.30
439;DHT22;206;48.782;9.252;2023-11-21T12:13:24;13.50;48.70
439;DHT22;206;48.782;9.252;2023-11-21T12:15:49;13.50;47.70
439;DHT22;206;48.782;9.252;2023-11-21T12:18:15;13.50;48.00
439;DHT22;206;48.782;9.252;2023-11-21T12:20:41;13.50;46.80
439;DHT22;206;48.782;9.252;2023-11-21T12:23:08;13.40;46.80
439;DHT22;206;48.782;9.252;2023-11-21T12:25:34;13.30;47.90
439;DHT22;206;48.782;9.252;2023-11-21T12:28:02;13.30;49.00
439;DHT22;206;48.782;9.252;2023-11-21T12:30:32;13.30;50.00
439;DHT22;206;48.782;9.252;2023-11-21T12:32:59;13.40;51.60
439;DHT22;206;48.782;9.252;2023-11-21T12:35:27;13.40;52.90
439;DHT22;206;48.782;9.252;2023-11-21T12:37:54;13.50;52.50
439;DHT22;206;48.782;9.252;2023-11-21T12:40:20;13.50;51.60
439;DHT22;206;48.782;9.252;2023-11-21T12:42:51;13.50;51.60
439;DHT22;206;48.782;9.252;2023-11-21T12:48:04;13.40;52.50
439;DHT22;206;48.782;9.252;2023-11-21T12:50:34;13.40;53.30
439;DHT22;206;48.782;9.252;2023-11-21T12:53:07;13.40;51.50
439;DHT22;206;48.782;9.252;2023-11-21T12:55:38;13.40;51.60
439;DHT22;206;48.782;9.252;2023-11-21T12:58:06;13.20;53.00
439;DHT22;206;48.782;9.252;2023-11-21T13:00:37;13.20;53.50
439;DHT22;206;48.782;9.252;2023-11-21T13:03:08;13.20;54.20
439;DHT22;206;48.782;9.252;2023-11-21T13:05:36;13.20;53.90
439;DHT22;206;48.782;9.252;2023-11-21T13:08:06;13.20;54.10
439;DHT22;206;48.782;9.252;2023-11-21T13:10:39;13.20;54.90
439;DHT22;206;48.782;9.252;2023-11-21T13:13:06;13.20;51.40
439;DHT22;206;48.782;9.252;2023-11-21T13:15:34;13.30;49.40
439;DHT22;206;48.782;9.252;2023-11-21T13:18:01;13.40;51.60
439;DHT22;206;48.782;9.252;2023-11-21T13:20:28;13.50;52.20
439;DHT22;206;48.782;9.252;2023-11-21T13:22:56;13.80;51.70
439;DHT22;206;48.782;9.252;2023-11-21T13:25:27;13.90;49.60
439;DHT22;206;48.782;9.252;2023-11-21T13:27:59;14.00;49.10
439;DHT22;206;48.782;9.252;2023-11-21T13:30:26;13.80;47.10
439;DHT22;206;48.782;9.252;2023-11-21T13:32:56;13.60;49.20
439;DHT22;206;48.782;9.252;2023-11-21T13:35:28;13.50;50.10
439;DHT22;206;48.782;9.252;2023-11-21T13:38:05;13.20;51.60
439;DHT22;206;48.782;9.252;2023-11-21T13:40:33;13.00;53.90
439;DHT22;206;48.782;9.252;2023-11-21T13:43:08;12.70;55.90
439;DHT22;206;48.782;9.252;2023-11-21T13:45:43;12.50;57.90
439;DHT22;206;48.782;9.252;2023-11-21T13:48:10;12.30;60.90
439;DHT22;206;48.782;9.252;2023-11-21T13:50:39;12.20;63.80
439;DHT22;206;48.782;9.252;2023-11-21T13:53:10;12.00;65.30
439;DHT22;206;48.782;9.252;2023-11-21T13:55:50;11.80;66.90
439;DHT22;206;48.782;9.252;2023-11-21T13:58:19;11.80;69.60
439;DHT22;206;48.782;9.252;2023-11-21T14:00:47;11.80;71.00
439;DHT22;206;48.782;9.252;2023-11-21T14:03:21;11.90;72.00
439;DHT22;206;48.782;9.252;2023-11-21T14:05:50;11.90;72.90
439;DHT22;206;48.782;9.252;2023-11-21T14:08:21;12.00;71.90
439;DHT22;206;48.782;9.252;2023-11-21T14:10:48;11.90;68.10
439;DHT22;206;48.782;9.252;2023-11-21T14:13:21;11.80;68.30
439;DHT22;206;48.782;9.252;2023-11-21T14:15:49;11.80;69.60
439;DHT22;206;48.782;9.252;2023-11-21T14:18:17;11.80;72.10
439;DHT22;206;48.782;9.252;2023-11-21T14:20:46;11.80;70.20
439;DHT22;206;48.782;9.252;2023-11-21T14:23:12;11.70;70.30
439;DHT22;206;48.782;9.252;2023-11-21T14:25:38;11.70;71.40
439;DHT22;206;48.782;9.252;2023-11-21T14:28:05;11.60;71.80
439;DHT22;206;48.782;9.252;2023-11-21T14:30:34;11.70;71.40
439;DHT22;206;48.782;9.252;2023-11-21T14:33:02;11.70;70.70
439;DHT22;206;48.782;9.252;2023-11-21T14:35:28;11.70;71.50
439;DHT22;206;48.782;9.252;2023-11-21T14:37:55;11.60;72.00
439;DHT22;206;48.782;9.252;2023-11-21T14:40:21;11.70;72.90
439;DHT22;206;48.782;9.252;2023-11-21T14:42:50;11.60;72.20
439;DHT22;206;48.782;9.252;2023-11-21T14:45:19;11.70;73.40
439;DHT22;206;48.782;9.252;2023-11-21T14:47:46;11.70;72.90
439;DHT22;206;48.782;9.252;2023-11-21T14:50:17;11.70;72.60
439;DHT22;206;48.782;9.252;2023-11-21T14:53:01;11.70;71.70
439;DHT22;206;48.782;9.252;2023-11-21T14:55:30;11.70;70.20
439;DHT22;206;48.782;9.252;2023-11-21T14:58:18;11.70;69.50
439;DHT22;206;48.782;9.252;2023-11-21T15:00:57;11.70;68.20
439;DHT22;206;48.782;9.252;2023-11-21T15:03:26;11.70;67.20
439;DHT22;206;48.782;9.252;2023-11-21T15:06:03;11.70;66.40
439;DHT22;206;48.782;9.252;2023-11-21T15:08:48;11.70;65.00
439;DHT22;206;48.782;9.252;2023-11-21T15:11:18;11.60;65.10
439;DHT22;206;48.782;9.252;2023-11-21T15:13:44;11.60;64.90
439;DHT22;206;48.782;9.252;2023-11-21T15:16:13;11.50;64.30
439;DHT22;206;48.782;9.252;2023-11-21T15:18:39;11.50;64.30
439;DHT22;206;48.782;9.252;2023-11-21T15:21:04;11.50;64.30
439;DHT22;206;48.782;9.252;2023-11-21T15:23:30;11.50;64.30
439;DHT22;206;48.782;9.252;2023-11-21T15:26:00;11.50;65.30
439;DHT22;206;48.782;9.252;2023-11-21T15:28:26;11.50;66.00
439;DHT22;206;48.782;9.252;2023-11-21T15:30:54;11.60;65.80
439;DHT22;206;48.782;9.252;2023-11-21T15:33:19;11.50;66.00
439;DHT22;206;48.782;9.252;2023-11-21T15:35:45;11.50;67.00
439;DHT22;206;48.782;9.252;2023-11-21T15:38:11;11.50;67.40
439;DHT22;206;48.782;9.252;2023-11-21T15:40:37;11.50;68.50
439;DHT22;206;48.782;9.252;2023-11-21T15:43:02;11.40;68.30
439;DHT22;206;48.782;9.252;2023-11-21T15:45:29;11.40;68.10
439;DHT22;206;48.782;9.252;2023-11-21T15:47:54;11.40;68.60
439;DHT22;206;48.782;9.252;2023-11-21T15:50:22;11.40;67.50
439;DHT22;206;48.782;9.252;2023-11-21T15:52:48;11.30;67.60
439;DHT22;206;48.782;9.252;2023-11-21T15:55:13;11.30;67.70
439;DHT22;206;48.782;9.252;2023-11-21T15:57:39;11.30;67.70
439;DHT22;206;48.782;9.252;2023-11-21T16:00:05;11.20;68.90
439;DHT22;206;48.782;9.252;2023-11-21T16:02:37;11.20;69.20
439;DHT22;206;48.782;9.252;2023-11-21T16:05:04;11.20;69.60
439;DHT22;206;48.782;9.252;2023-11-21T16:07:31;11.20;70.40
439;DHT22;206;48.782;9.252;2023-11-21T16:09:57;11.20;70.50
439;DHT22;206;48.782;9.252;2023-11-21T16:12:23;11.20;71.30
439;DHT22;206;48.782;9.252;2023-11-21T16:14:48;11.30;70.20
439;DHT22;206;48.782;9.252;2023-11-21T16:17:15;11.20;68.90
439;DHT22;206;48.782;9.252;2023-11-21T16:19:43;11.20;68.30
439;DHT22;206;48.782;9.252;2023-11-21T16:22:09;11.20;67.80
439;DHT22;206;48.782;9.252;2023-11-21T16:24:36;11.20;67.80
439;DHT22;206;48.782;9.252;2023-11-21T16:27:03;11.20;68.00
439;DHT22;206;48.782;9.252;2023-11-21T16:29:29;11.20;67.90
439;DHT22;206;48.782;9.252;2023-11-21T16:31:56;11.20;67.80
439;DHT22;206;48.782;9.252;2023-11-21T16:34:22;11.20;67.40
439;DHT22;206;48.782;9.252;2023-11-21T16:36:47;11.10;67.80
439;DHT22;206;48.782;9.252;2023-11-21T16:39:17;11.00;68.50
439;DHT22;206;48.782;9.252;2023-11-21T16:41:44;10.90;69.80
439;DHT22;206;48.782;9.252;2023-11-21T16:44:18;10.90;70.00
439;DHT22;206;48.782;9.252;2023-11-21T16:46:47;10.80;70.90
439;DHT22;206;48.782;9.252;2023-11-21T16:49:15;10.80;71.00